createdAt,value
2023-05-14T00:00:31.839Z,14.68
2023-05-14T00:02:58.500Z,14.73
2023-05-14T00:05:25.083Z,15.60
2023-05-14T00:07:51.547Z,15.90
2023-05-14T00:10:20.304Z,16.17
2023-05-14T00:12:46.716Z,16.10
2023-05-14T00:15:13.272Z,16.10
2023-05-14T00:17:39.843Z,16.10
2023-05-14T00:20:11.989Z,16.73
2023-05-14T00:22:39.580Z,16.95
2023-05-14T00:25:07.558Z,16.25
2023-05-14T00:27:34.967Z,15.80
2023-05-14T00:30:01.428Z,17.45
2023-05-14T00:32:27.903Z,16.67
2023-05-14T00:34:54.297Z,16.08
2023-05-14T00:37:20.650Z,17.80
2023-05-14T00:39:47.104Z,16.83
2023-05-14T00:42:13.584Z,17.20
2023-05-14T00:44:40.014Z,17.17
2023-05-14T00:47:07.369Z,17.30
2023-05-14T00:49:34.940Z,17.25
2023-05-14T00:52:01.664Z,17.20
2023-05-14T00:54:28.676Z,16.88
2023-05-14T00:59:22.484Z,17.73
2023-05-14T01:01:49.099Z,17.70
2023-05-14T01:04:15.914Z,17.70
2023-05-14T01:06:48.305Z,17.85
2023-05-14T01:09:21.980Z,17.33
2023-05-14T01:11:59.894Z,17.88
2023-05-14T01:17:13.384Z,17.42
2023-05-14T01:19:41.845Z,16.52
2023-05-14T01:22:08.451Z,17.73
2023-05-14T01:24:34.991Z,18.33
2023-05-14T01:27:15.915Z,17.43
2023-05-14T01:29:45.464Z,18.50
2023-05-14T01:32:13.407Z,18.90
2023-05-14T01:34:40.921Z,18.10
2023-05-14T01:39:37.914Z,17.02
2023-05-14T01:42:05.176Z,18.55
2023-05-14T01:44:32.147Z,17.60
2023-05-14T01:46:58.606Z,18.65
2023-05-14T01:49:25.056Z,17.55
2023-05-14T01:51:51.581Z,17.73
2023-05-14T01:54:18.010Z,18.03
2023-05-14T01:56:44.599Z,17.60
2023-05-14T01:59:12.226Z,18.45
2023-05-14T02:01:38.694Z,18.15
2023-05-14T02:04:07.239Z,18.65
2023-05-14T02:06:33.623Z,18.40
2023-05-14T02:09:00.130Z,18.55
2023-05-14T02:11:26.637Z,18.85
2023-05-14T02:13:53.068Z,19.13
2023-05-14T02:16:19.540Z,19.03
2023-05-14T02:18:46.054Z,19.20
2023-05-14T02:21:12.517Z,17.97
2023-05-14T02:23:41.863Z,19.10
2023-05-14T02:26:12.292Z,19.48
2023-05-14T02:28:38.758Z,19.58
2023-05-14T02:31:05.326Z,18.67
2023-05-14T02:33:31.852Z,17.98
2023-05-14T02:35:58.397Z,18.67
2023-05-14T02:38:26.768Z,18.67
2023-05-14T02:40:53.267Z,19.17
2023-05-14T02:43:19.697Z,18.53
2023-05-14T02:45:46.081Z,18.35
2023-05-14T02:48:12.559Z,19.23
2023-05-14T02:50:39.049Z,19.17
2023-05-14T02:53:05.674Z,19.80
2023-05-14T02:55:33.068Z,19.80
2023-05-14T03:00:26.096Z,19.80
2023-05-14T03:02:53.173Z,20.15
2023-05-14T03:05:21.012Z,20.00
2023-05-14T03:07:47.390Z,20.42
2023-05-14T03:10:14.868Z,20.70
2023-05-14T03:12:41.679Z,19.75
2023-05-14T03:15:08.976Z,21.30
2023-05-14T03:17:35.524Z,20.48
2023-05-14T03:20:02.293Z,21.13
2023-05-14T03:22:28.888Z,20.63
2023-05-14T03:24:55.282Z,20.38
2023-05-14T03:27:21.726Z,20.60
2023-05-14T03:29:48.140Z,21.57
2023-05-14T03:32:14.889Z,22.52
2023-05-14T03:34:41.550Z,21.40
2023-05-14T03:37:08.029Z,20.90
2023-05-14T03:39:34.542Z,21.83
2023-05-14T03:42:01.005Z,22.88
2023-05-14T03:44:27.679Z,21.50
2023-05-14T03:46:57.405Z,21.48
2023-05-14T03:49:23.869Z,22.33
2023-05-14T03:51:50.559Z,21.07
2023-05-14T03:54:20.188Z,20.67
2023-05-14T03:56:47.635Z,20.70
2023-05-14T04:01:40.520Z,19.70
2023-05-14T04:04:07.103Z,20.83
2023-05-14T04:06:33.924Z,20.70
2023-05-14T04:09:00.514Z,21.67
2023-05-14T04:11:27.270Z,22.08
2023-05-14T04:13:56.188Z,21.17
2023-05-14T04:16:23.413Z,21.52
2023-05-14T04:18:50.125Z,20.52
2023-05-14T04:21:16.886Z,22.13
2023-05-14T04:23:43.305Z,21.77
2023-05-14T04:26:09.705Z,20.65
2023-05-14T04:28:36.167Z,20.60
2023-05-14T04:31:12.122Z,20.90
2023-05-14T04:33:38.602Z,21.98
2023-05-14T04:36:05.755Z,20.97
2023-05-14T04:38:33.197Z,20.13
2023-05-14T04:43:26.068Z,19.95
2023-05-14T04:46:02.436Z,21.40
2023-05-14T04:48:29.146Z,21.48
2023-05-14T04:50:55.582Z,21.15
2023-05-14T04:53:22.042Z,21.02
2023-05-14T04:55:49.721Z,20.37
2023-05-14T04:58:16.261Z,20.13
2023-05-14T05:00:42.790Z,20.67
2023-05-14T05:03:12.595Z,21.57
2023-05-14T05:05:39.174Z,21.05
2023-05-14T05:08:05.734Z,21.63
2023-05-14T05:10:39.366Z,21.17
2023-05-14T05:13:05.837Z,23.10
2023-05-14T05:15:32.255Z,20.63
2023-05-14T05:17:58.750Z,22.00
2023-05-14T05:20:25.699Z,20.40
2023-05-14T05:22:52.166Z,21.13
2023-05-14T05:25:18.848Z,22.02
2023-05-14T05:27:45.384Z,21.67
2023-05-14T05:30:18.219Z,21.60
2023-05-14T05:32:44.778Z,20.40
2023-05-14T05:35:11.260Z,21.73
2023-05-14T05:37:41.457Z,21.00
2023-05-14T05:40:09.255Z,21.27
2023-05-14T05:42:37.675Z,20.27
2023-05-14T05:45:04.517Z,21.67
2023-05-14T05:47:30.988Z,20.92
2023-05-14T05:49:57.475Z,20.73
2023-05-14T05:52:24.073Z,20.67
2023-05-14T05:54:50.520Z,19.38
2023-05-14T05:57:18.005Z,19.43
2023-05-14T05:59:44.414Z,19.95
2023-05-14T06:02:11.086Z,20.03
2023-05-14T06:04:37.670Z,18.52
2023-05-14T06:07:04.335Z,18.52
2023-05-14T06:09:30.698Z,18.50
2023-05-14T06:11:57.091Z,18.75
2023-05-14T06:14:23.555Z,17.53
2023-05-14T06:17:02.176Z,18.07
2023-05-14T06:19:29.872Z,18.92
2023-05-14T06:21:56.259Z,19.13
2023-05-14T06:24:23.765Z,18.57
2023-05-14T06:26:50.270Z,17.50
2023-05-14T06:29:17.676Z,17.60
2023-05-14T06:31:44.284Z,17.65
2023-05-14T06:34:12.122Z,19.25
2023-05-14T06:36:38.544Z,18.25
2023-05-14T06:39:07.170Z,18.67
2023-05-14T06:41:34.122Z,18.50
2023-05-14T06:44:01.207Z,18.02
2023-05-14T06:46:27.714Z,19.05
2023-05-14T06:48:54.254Z,19.05
2023-05-14T06:51:20.899Z,18.55
2023-05-14T06:53:48.815Z,18.00
2023-05-14T06:56:16.278Z,18.50
2023-05-14T06:58:42.789Z,17.73
2023-05-14T07:01:09.598Z,16.50
2023-05-14T07:03:44.164Z,16.50
2023-05-14T07:06:12.480Z,16.13
2023-05-14T07:08:42.671Z,16.45
2023-05-14T07:11:09.121Z,17.92
2023-05-14T07:13:36.258Z,17.48
2023-05-14T07:16:07.240Z,16.85
2023-05-14T07:18:35.857Z,16.95
2023-05-14T07:21:02.409Z,16.75
2023-05-14T07:23:28.800Z,15.88
2023-05-14T07:25:55.268Z,15.60
2023-05-14T07:28:26.866Z,16.73
2023-05-14T07:30:53.324Z,17.58
2023-05-14T07:33:21.105Z,17.85
2023-05-14T07:35:47.657Z,17.33
2023-05-14T07:38:16.916Z,17.27
2023-05-14T07:40:51.347Z,16.80
2023-05-14T07:43:18.929Z,17.48
2023-05-14T07:45:45.535Z,16.73
2023-05-14T07:48:12.272Z,17.58
2023-05-14T07:50:41.465Z,17.77
2023-05-14T07:53:08.107Z,16.55
2023-05-14T07:55:34.637Z,15.65
2023-05-14T07:58:02.066Z,15.95
2023-05-14T08:00:28.698Z,14.82
2023-05-14T08:02:55.742Z,13.93
2023-05-14T08:07:53.091Z,11.98
2023-05-14T08:10:19.789Z,12.43
2023-05-14T08:12:46.193Z,13.40
2023-05-14T08:15:12.653Z,14.30
2023-05-14T08:17:39.151Z,15.30
2023-05-14T08:20:06.920Z,15.20
2023-05-14T08:22:45.605Z,14.98
2023-05-14T08:25:12.472Z,14.25
2023-05-14T08:27:39.031Z,13.30
2023-05-14T08:30:14.536Z,14.02
2023-05-14T08:32:41.278Z,13.73
2023-05-14T08:35:08.377Z,14.63
2023-05-14T08:37:34.935Z,15.02
2023-05-14T08:40:01.597Z,15.45
2023-05-14T08:42:43.086Z,14.65
2023-05-14T08:45:17.958Z,14.32
2023-05-14T08:47:49.368Z,14.45
2023-05-14T08:50:17.154Z,14.10
2023-05-14T08:52:44.303Z,12.25
2023-05-14T08:57:39.003Z,12.13
2023-05-14T09:00:08.821Z,11.93
2023-05-14T09:02:36.690Z,12.60
2023-05-14T09:05:03.965Z,14.57
2023-05-14T09:07:33.956Z,14.75
2023-05-14T09:10:02.046Z,13.63
2023-05-14T09:12:29.480Z,13.23
2023-05-14T09:14:57.080Z,13.82
2023-05-14T09:17:26.104Z,13.30
2023-05-14T09:19:59.860Z,13.98
2023-05-14T09:22:30.114Z,12.27
2023-05-14T09:25:12.308Z,11.98
2023-05-14T09:27:40.883Z,12.80
2023-05-14T09:30:12.495Z,12.65
2023-05-14T09:32:41.313Z,12.52
2023-05-14T09:35:24.893Z,12.85
2023-05-14T09:37:54.750Z,11.85
2023-05-14T09:40:23.649Z,12.88
2023-05-14T09:42:53.080Z,13.30
2023-05-14T09:45:19.645Z,12.60
2023-05-14T09:47:46.303Z,10.52
2023-05-14T09:50:14.083Z,10.27
2023-05-14T09:52:41.000Z,12.07
2023-05-14T09:57:35.348Z,11.63
2023-05-14T10:00:01.812Z,10.75
2023-05-14T10:02:37.734Z,10.52
2023-05-14T10:05:06.804Z,11.23
2023-05-14T10:07:41.604Z,11.80
2023-05-14T10:10:13.532Z,12.52
2023-05-14T10:12:40.718Z,11.90
2023-05-14T10:15:16.407Z,10.43
2023-05-14T10:17:46.734Z,11.23
2023-05-14T10:20:16.713Z,10.40
2023-05-14T10:22:43.299Z,10.98
2023-05-14T10:25:10.955Z,11.93
2023-05-14T10:27:39.443Z,11.30
2023-05-14T10:30:11.945Z,13.55
2023-05-14T10:32:39.088Z,10.88
2023-05-14T10:35:20.831Z,11.35
2023-05-14T10:37:52.682Z,11.55
2023-05-14T10:40:21.044Z,12.00
2023-05-14T10:42:48.478Z,11.05
2023-05-14T10:45:16.121Z,10.10
2023-05-14T10:47:45.271Z,11.07
2023-05-14T10:50:14.560Z,12.10
2023-05-14T10:52:45.628Z,12.63
2023-05-14T10:55:19.022Z,11.20
2023-05-14T10:57:46.909Z,13.27
2023-05-14T11:00:14.847Z,13.30
2023-05-14T11:02:56.110Z,15.02
2023-05-14T11:05:22.717Z,13.82
2023-05-14T11:07:50.295Z,13.10
2023-05-14T11:10:20.808Z,13.07
2023-05-14T11:12:49.379Z,11.80
2023-05-14T11:15:19.922Z,11.55
2023-05-14T11:17:48.319Z,11.82
2023-05-14T11:20:21.185Z,10.30
2023-05-14T11:22:49.336Z,9.40
2023-05-14T11:25:18.368Z,9.13
2023-05-14T11:27:46.328Z,10.23
2023-05-14T11:30:20.548Z,9.77
2023-05-14T11:32:49.421Z,9.55
2023-05-14T11:35:18.065Z,8.07
2023-05-14T11:37:57.733Z,7.78
2023-05-14T11:40:24.441Z,6.28
2023-05-14T11:42:53.427Z,7.03
2023-05-14T11:45:27.675Z,6.57
2023-05-14T11:48:00.192Z,5.70
2023-05-14T11:50:27.152Z,5.75
2023-05-14T11:52:57.215Z,4.60
2023-05-14T11:55:23.853Z,4.63
2023-05-14T11:57:51.235Z,6.05
2023-05-14T12:00:22.109Z,6.20
2023-05-14T12:02:49.950Z,6.55
2023-05-14T12:05:17.053Z,7.45
2023-05-14T12:07:49.484Z,7.07
2023-05-14T12:10:16.348Z,6.90
2023-05-14T12:12:49.802Z,6.68
2023-05-14T12:15:21.778Z,6.65
2023-05-14T12:17:54.023Z,7.25
2023-05-14T12:20:23.789Z,5.75
2023-05-14T12:22:50.707Z,6.50
2023-05-14T12:25:17.547Z,6.43
2023-05-14T12:30:21.626Z,6.63
2023-05-14T12:32:51.724Z,6.30
2023-05-14T12:35:22.600Z,4.55
2023-05-14T12:37:49.542Z,4.30
2023-05-14T12:40:15.936Z,4.15
2023-05-14T12:42:43.521Z,4.50
2023-05-14T12:45:10.422Z,4.60
2023-05-14T12:50:04.347Z,4.88
2023-05-14T12:52:39.193Z,3.90
2023-05-14T12:55:09.657Z,3.83
2023-05-14T12:57:39.582Z,3.75
2023-05-14T13:00:08.103Z,4.15
2023-05-14T13:02:42.142Z,3.85
2023-05-14T13:05:09.196Z,3.92
2023-05-14T13:07:37.304Z,3.40
2023-05-14T13:10:05.880Z,4.88
2023-05-14T13:12:32.737Z,3.58
2023-05-14T13:15:00.791Z,3.22
2023-05-14T13:17:27.515Z,3.10
2023-05-14T13:19:54.238Z,3.30
2023-05-14T13:22:20.996Z,3.13
2023-05-14T13:24:47.411Z,2.78
2023-05-14T13:29:40.275Z,3.08
2023-05-14T13:32:07.107Z,3.10
2023-05-14T13:34:33.816Z,3.33
2023-05-14T13:37:00.242Z,2.70
2023-05-14T13:41:57.094Z,2.97
2023-05-14T13:44:25.732Z,3.08
2023-05-14T13:46:52.740Z,2.70
2023-05-14T13:49:19.219Z,3.20
2023-05-14T13:51:47.642Z,3.00
2023-05-14T13:54:22.211Z,3.42
2023-05-14T13:56:52.968Z,3.35
2023-05-14T13:59:20.634Z,3.50
2023-05-14T14:01:48.217Z,3.22
2023-05-14T14:04:25.670Z,3.25
2023-05-14T14:06:52.153Z,3.47
2023-05-14T14:09:18.687Z,3.28
2023-05-14T14:14:20.186Z,3.25
2023-05-14T14:16:47.605Z,3.63
2023-05-14T14:19:16.042Z,3.30
2023-05-14T14:21:43.852Z,3.20
2023-05-14T14:24:10.624Z,2.88
2023-05-14T14:26:37.034Z,3.20
2023-05-14T14:29:03.613Z,2.90
2023-05-14T14:33:57.584Z,3.25
2023-05-14T14:38:50.494Z,2.67
2023-05-14T14:41:16.884Z,3.67
2023-05-14T14:43:43.518Z,3.50
2023-05-14T14:48:37.810Z,3.75
2023-05-14T14:51:06.304Z,3.40
2023-05-14T14:53:34.007Z,3.75
2023-05-14T14:56:01.210Z,3.83
2023-05-14T14:58:27.963Z,3.40
2023-05-14T15:00:57.302Z,3.33
2023-05-14T15:03:24.927Z,3.58
2023-05-14T15:05:58.644Z,3.47
2023-05-14T15:08:30.028Z,3.30
2023-05-14T15:11:00.515Z,3.22
2023-05-14T15:13:27.200Z,3.50
2023-05-14T15:15:53.653Z,3.78
2023-05-14T15:20:47.315Z,4.20
2023-05-14T15:25:40.158Z,4.72
2023-05-14T15:30:33.769Z,3.40
2023-05-14T15:35:27.014Z,3.37
2023-05-14T15:37:58.384Z,3.10
2023-05-14T15:40:27.353Z,2.88
2023-05-14T15:42:54.094Z,3.25
2023-05-14T15:47:49.589Z,3.28
2023-05-14T15:50:16.064Z,3.38
2023-05-14T15:55:09.354Z,3.35
2023-05-14T15:57:45.540Z,3.45
2023-05-14T16:00:12.626Z,3.30
2023-05-14T16:02:40.336Z,4.18
2023-05-14T16:05:08.610Z,3.85
2023-05-14T16:07:36.122Z,3.90
2023-05-14T16:10:02.559Z,3.67
2023-05-14T16:12:29.010Z,3.80
2023-05-14T16:14:57.433Z,3.35
2023-05-14T16:17:23.921Z,3.95
2023-05-14T16:19:50.507Z,3.33
2023-05-14T16:22:16.918Z,3.50
2023-05-14T16:24:45.452Z,3.20
2023-05-14T16:27:12.222Z,3.63
2023-05-14T16:29:38.985Z,3.80
2023-05-14T16:32:08.987Z,3.22
2023-05-14T16:34:37.682Z,3.50
2023-05-14T16:37:04.693Z,3.22
2023-05-14T16:39:40.471Z,3.60
2023-05-14T16:42:06.913Z,3.80
2023-05-14T16:44:33.422Z,3.70
2023-05-14T16:46:59.845Z,3.97
2023-05-14T16:49:26.306Z,3.45
2023-05-14T16:51:52.718Z,4.00
2023-05-14T16:54:19.129Z,3.75
2023-05-14T16:56:48.492Z,4.50
2023-05-14T16:59:16.018Z,4.05
2023-05-14T17:01:47.844Z,3.97
2023-05-14T17:04:17.746Z,3.60
2023-05-14T17:06:45.998Z,3.80
2023-05-14T17:09:12.429Z,4.20
2023-05-14T17:11:38.834Z,3.75
2023-05-14T17:14:06.434Z,3.88
2023-05-14T17:16:33.915Z,4.50
2023-05-14T17:19:00.514Z,4.10
2023-05-14T17:21:27.781Z,4.50
2023-05-14T17:23:54.612Z,4.13
2023-05-14T17:28:48.237Z,4.25
2023-05-14T17:31:14.765Z,4.07
2023-05-14T17:33:41.337Z,3.92
2023-05-14T17:36:07.912Z,4.60
2023-05-14T17:38:34.688Z,4.43
2023-05-14T17:43:28.590Z,5.32
2023-05-14T17:45:55.262Z,4.82
2023-05-14T17:48:23.177Z,5.00
2023-05-14T17:50:51.598Z,4.47
2023-05-14T17:53:24.386Z,4.25
2023-05-14T17:55:51.437Z,4.90
2023-05-14T17:58:17.891Z,5.05
2023-05-14T18:00:44.789Z,5.28
2023-05-14T18:05:38.450Z,4.40
2023-05-14T18:08:05.285Z,4.63
2023-05-14T18:10:31.903Z,4.70
2023-05-14T18:12:58.322Z,4.93
2023-05-14T18:15:25.555Z,4.53
2023-05-14T18:17:52.737Z,4.68
2023-05-14T18:20:19.631Z,4.25
2023-05-14T18:22:46.486Z,4.68
2023-05-14T18:27:44.580Z,4.85
2023-05-14T18:30:13.300Z,4.78
2023-05-14T18:32:41.586Z,4.40
2023-05-14T18:35:09.915Z,4.68
2023-05-14T18:37:36.827Z,4.82
2023-05-14T18:40:04.857Z,4.90
2023-05-14T18:42:35.007Z,5.40
2023-05-14T18:45:11.697Z,5.32
2023-05-14T18:47:39.687Z,5.80
2023-05-14T18:50:07.888Z,6.38
2023-05-14T18:52:41.626Z,6.30
2023-05-14T18:55:08.498Z,6.82
2023-05-14T18:57:36.800Z,6.88
2023-05-14T19:00:05.074Z,7.25
2023-05-14T19:02:31.661Z,7.25
2023-05-14T19:04:58.175Z,6.60
2023-05-14T19:07:30.342Z,6.82
2023-05-14T19:09:57.228Z,6.05
2023-05-14T19:12:23.855Z,6.38
2023-05-14T19:14:50.439Z,6.25
2023-05-14T19:17:18.564Z,6.32
2023-05-14T19:19:46.937Z,7.05
2023-05-14T19:22:13.397Z,6.32
2023-05-14T19:24:40.098Z,6.40
2023-05-14T19:27:06.446Z,7.55
2023-05-14T19:29:34.209Z,8.43
2023-05-14T19:32:00.946Z,9.75
2023-05-14T19:34:28.680Z,9.65
2023-05-14T19:36:55.540Z,11.35
2023-05-14T19:39:23.895Z,11.77
2023-05-14T19:41:50.303Z,11.93
2023-05-14T19:44:16.700Z,13.27
2023-05-14T19:46:43.237Z,12.63
2023-05-14T19:49:09.771Z,12.07
2023-05-14T19:51:36.283Z,13.20
2023-05-14T19:54:06.796Z,13.40
2023-05-14T19:56:33.361Z,13.75
2023-05-14T19:58:59.788Z,14.25
2023-05-14T20:01:26.705Z,14.07
2023-05-14T20:04:00.187Z,14.55
2023-05-14T20:06:27.141Z,14.60
2023-05-14T20:08:55.131Z,15.48
2023-05-14T20:11:21.909Z,14.82
2023-05-14T20:13:48.735Z,15.85
2023-05-14T20:16:17.453Z,15.68
2023-05-14T20:18:44.598Z,15.98
2023-05-14T20:23:37.652Z,16.75
2023-05-14T20:26:04.624Z,16.23
2023-05-14T20:28:31.051Z,16.08
2023-05-14T20:31:01.173Z,15.30
2023-05-14T20:33:29.232Z,16.65
2023-05-14T20:35:56.199Z,16.05
2023-05-14T20:38:22.893Z,16.67
2023-05-14T20:40:49.451Z,16.70
2023-05-14T20:43:16.087Z,16.92
2023-05-14T20:45:42.556Z,17.63
2023-05-14T20:48:11.415Z,16.90
2023-05-14T20:50:37.965Z,17.33
2023-05-14T20:53:04.388Z,18.80
2023-05-14T20:55:32.067Z,17.73
2023-05-14T20:57:58.533Z,18.42
2023-05-14T21:00:25.180Z,16.80
2023-05-14T21:02:51.758Z,19.55
2023-05-14T21:05:18.458Z,20.65
2023-05-14T21:07:44.973Z,20.02
2023-05-14T21:10:11.481Z,16.58
2023-05-14T21:12:37.938Z,19.15
2023-05-14T21:15:04.732Z,17.42
2023-05-14T21:17:31.422Z,20.30
2023-05-14T21:19:57.892Z,18.88
2023-05-14T21:22:24.695Z,17.87
2023-05-14T21:24:51.329Z,19.40
2023-05-14T21:27:17.816Z,18.67
2023-05-14T21:29:47.141Z,18.75
2023-05-14T21:32:13.671Z,19.52
2023-05-14T21:34:40.113Z,20.63
2023-05-14T21:37:06.751Z,20.23
2023-05-14T21:39:33.342Z,20.67
2023-05-14T21:41:59.813Z,18.65
2023-05-14T21:44:26.445Z,20.20
2023-05-14T21:46:52.886Z,21.13
2023-05-14T21:49:19.298Z,20.40
2023-05-14T21:51:45.740Z,20.33
2023-05-14T21:54:12.172Z,21.67
2023-05-14T21:56:38.675Z,21.33
2023-05-14T21:59:05.066Z,21.85
2023-05-14T22:01:32.589Z,21.77
2023-05-14T22:04:00.296Z,23.15
2023-05-14T22:06:26.756Z,22.77
2023-05-14T22:08:53.481Z,21.80
2023-05-14T22:11:19.881Z,21.05
2023-05-14T22:13:46.425Z,21.95
2023-05-14T22:16:14.036Z,20.55
2023-05-14T22:18:41.073Z,22.48
2023-05-14T22:21:07.616Z,22.05
2023-05-14T22:23:34.266Z,21.77
2023-05-14T22:26:00.852Z,21.67
2023-05-14T22:28:27.581Z,22.13
2023-05-14T22:30:54.081Z,21.88
2023-05-14T22:33:20.705Z,20.02
2023-05-14T22:35:47.226Z,19.47
2023-05-14T22:38:14.052Z,21.45
2023-05-14T22:40:40.522Z,20.85
2023-05-14T22:43:06.909Z,20.55
2023-05-14T22:45:33.463Z,20.77
2023-05-14T22:48:00.050Z,19.98
2023-05-14T22:50:26.869Z,20.55
2023-05-14T22:52:53.386Z,21.17
2023-05-14T22:55:19.777Z,22.13
2023-05-14T22:57:46.207Z,21.77
2023-05-14T23:00:13.220Z,22.80
2023-05-14T23:02:39.685Z,20.27
2023-05-14T23:05:07.651Z,20.20
2023-05-14T23:07:34.542Z,20.73
2023-05-14T23:10:01.029Z,20.90
2023-05-14T23:12:27.458Z,19.40
2023-05-14T23:14:53.842Z,20.00
2023-05-14T23:17:20.279Z,19.23
2023-05-14T23:19:46.805Z,19.70
2023-05-14T23:22:13.358Z,21.63
2023-05-14T23:24:39.756Z,19.43
2023-05-14T23:27:06.386Z,19.65
2023-05-14T23:29:32.882Z,21.45
2023-05-14T23:31:59.334Z,20.67
2023-05-14T23:34:25.829Z,20.77
2023-05-14T23:36:52.716Z,20.92
2023-05-14T23:39:19.267Z,19.13
2023-05-14T23:41:45.798Z,20.55
2023-05-14T23:44:12.290Z,20.70
2023-05-14T23:46:38.796Z,22.30
2023-05-14T23:49:05.339Z,20.63
2023-05-14T23:51:31.894Z,21.43
2023-05-14T23:53:58.511Z,20.55
2023-05-14T23:56:26.302Z,20.17
2023-05-14T23:58:53.082Z,21.48
